<?xml version="1.0" encoding="UTF-8" standalone="no" ?>
<gpx xmlns="http://www.topografix.com/GPX/1/1" xmlns:xsi="http://www.w3.org/2001/XMLSchema-instance" xsi:schemaLocation="http://www.topografix.com/GPX/1/1 http://www.topografix.com/GPX/1/1/gpx.xsd" version="1.1" creator="VisuGPX - https://www.visugpx.com">
  <metadata>
    <name>Pic d'Estibat (1663m) depuis le col de Port (1249m)</name>
  </metadata>
  <trk>
    <name><![CDATA[Pic d'Estibat en exploration]]></name>
    <trkseg>
      <trkpt lat="42.89586" lon="1.46702">
        <ele>1124.93</ele>
        <time>2024-03-09T09:04:00Z</time>
      </trkpt>
      <trkpt lat="42.89603" lon="1.46425">
        <ele>1119.02</ele>
        <time>2024-03-09T09:15:07Z</time>
      </trkpt>
      <trkpt lat="42.89599" lon="1.46375">
        <ele>1119.23</ele>
        <time>2024-03-09T09:15:46Z</time>
      </trkpt>
      <trkpt lat="42.89565" lon="1.4623">
        <ele>1139.23</ele>
        <time>2024-03-09T09:18:26Z</time>
      </trkpt>
      <trkpt lat="42.89588" lon="1.46163">
        <ele>1143.93</ele>
        <time>2024-03-09T09:20:31Z</time>
      </trkpt>
      <trkpt lat="42.8958" lon="1.46141">
        <ele>1152.56</ele>
        <time>2024-03-09T09:21:27Z</time>
      </trkpt>
      <trkpt lat="42.89577" lon="1.4609">
        <ele>1162.62</ele>
        <time>2024-03-09T09:22:30Z</time>
      </trkpt>
      <trkpt lat="42.89561" lon="1.46076">
        <ele>1169.93</ele>
        <time>2024-03-09T09:23:08Z</time>
      </trkpt>
      <trkpt lat="42.89543" lon="1.46075">
        <ele>1173.92</ele>
        <time>2024-03-09T09:23:39Z</time>
      </trkpt>
      <trkpt lat="42.89531" lon="1.46093">
        <ele>1182.11</ele>
        <time>2024-03-09T09:24:10Z</time>
      </trkpt>
      <trkpt lat="42.89513" lon="1.46086">
        <ele>1193.9</ele>
        <time>2024-03-09T09:25:25Z</time>
      </trkpt>
      <trkpt lat="42.89497" lon="1.46099">
        <ele>1196.93</ele>
        <time>2024-03-09T09:25:54Z</time>
      </trkpt>
      <trkpt lat="42.89485" lon="1.46081">
        <ele>1207.93</ele>
        <time>2024-03-09T09:26:42Z</time>
      </trkpt>
      <trkpt lat="42.89462" lon="1.45986">
        <ele>1226.93</ele>
        <time>2024-03-09T09:30:13Z</time>
      </trkpt>
      <trkpt lat="42.89445" lon="1.45994">
        <ele>1229.93</ele>
        <time>2024-03-09T09:30:51Z</time>
      </trkpt>
      <trkpt lat="42.89438" lon="1.45971">
        <ele>1234.93</ele>
        <time>2024-03-09T09:31:30Z</time>
      </trkpt>
      <trkpt lat="42.89419" lon="1.45968">
        <ele>1244.55</ele>
        <time>2024-03-09T09:32:13Z</time>
      </trkpt>
      <trkpt lat="42.89408" lon="1.45948">
        <ele>1253.94</ele>
        <time>2024-03-09T09:32:51Z</time>
      </trkpt>
      <trkpt lat="42.89404" lon="1.45924">
        <ele>1258.94</ele>
        <time>2024-03-09T09:33:20Z</time>
      </trkpt>
      <trkpt lat="42.89389" lon="1.45909">
        <ele>1270.17</ele>
        <time>2024-03-09T09:35:01Z</time>
      </trkpt>
      <trkpt lat="42.89398" lon="1.45835">
        <ele>1282.94</ele>
        <time>2024-03-09T09:39:23Z</time>
      </trkpt>
      <trkpt lat="42.894" lon="1.45709">
        <ele>1306.93</ele>
        <time>2024-03-09T09:41:51Z</time>
      </trkpt>
      <trkpt lat="42.89391" lon="1.45634">
        <ele>1320.93</ele>
        <time>2024-03-09T09:43:31Z</time>
      </trkpt>
      <trkpt lat="42.8938" lon="1.45614">
        <ele>1323.93</ele>
        <time>2024-03-09T09:44:26Z</time>
      </trkpt>
      <trkpt lat="42.89364" lon="1.45542">
        <ele>1337.84</ele>
        <time>2024-03-09T09:45:55Z</time>
      </trkpt>
      <trkpt lat="42.8928" lon="1.45379">
        <ele>1372.64</ele>
        <time>2024-03-09T09:50:20Z</time>
      </trkpt>
      <trkpt lat="42.89264" lon="1.45308">
        <ele>1387.94</ele>
        <time>2024-03-09T09:52:13Z</time>
      </trkpt>
      <trkpt lat="42.89246" lon="1.45312">
        <ele>1395.88</ele>
        <time>2024-03-09T09:53:00Z</time>
      </trkpt>
      <trkpt lat="42.89232" lon="1.45265">
        <ele>1406.64</ele>
        <time>2024-03-09T09:54:18Z</time>
      </trkpt>
      <trkpt lat="42.89188" lon="1.45309">
        <ele>1423.94</ele>
        <time>2024-03-09T09:55:55Z</time>
      </trkpt>
      <trkpt lat="42.89182" lon="1.45285">
        <ele>1431.92</ele>
        <time>2024-03-09T09:56:39Z</time>
      </trkpt>
      <trkpt lat="42.89182" lon="1.45211">
        <ele>1448.64</ele>
        <time>2024-03-09T09:58:27Z</time>
      </trkpt>
      <trkpt lat="42.89164" lon="1.45218">
        <ele>1458.94</ele>
        <time>2024-03-09T09:59:19Z</time>
      </trkpt>
      <trkpt lat="42.89156" lon="1.45197">
        <ele>1462.94</ele>
        <time>2024-03-09T10:00:10Z</time>
      </trkpt>
      <trkpt lat="42.8912" lon="1.45209">
        <ele>1473.94</ele>
        <time>2024-03-09T10:01:17Z</time>
      </trkpt>
      <trkpt lat="42.89084" lon="1.45206">
        <ele>1484.94</ele>
        <time>2024-03-09T10:02:20Z</time>
      </trkpt>
      <trkpt lat="42.8909" lon="1.45157">
        <ele>1496.95</ele>
        <time>2024-03-09T10:03:28Z</time>
      </trkpt>
      <trkpt lat="42.89087" lon="1.45107">
        <ele>1504.95</ele>
        <time>2024-03-09T10:04:28Z</time>
      </trkpt>
      <trkpt lat="42.8907" lon="1.45099">
        <ele>1513.92</ele>
        <time>2024-03-09T10:05:33Z</time>
      </trkpt>
      <trkpt lat="42.89052" lon="1.45104">
        <ele>1516.88</ele>
        <time>2024-03-09T10:06:06Z</time>
      </trkpt>
      <trkpt lat="42.8904" lon="1.45086">
        <ele>1522.94</ele>
        <time>2024-03-09T10:06:48Z</time>
      </trkpt>
      <trkpt lat="42.89008" lon="1.45061">
        <ele>1536.65</ele>
        <time>2024-03-09T10:07:54Z</time>
      </trkpt>
      <trkpt lat="42.88996" lon="1.45041">
        <ele>1543.93</ele>
        <time>2024-03-09T10:08:51Z</time>
      </trkpt>
      <trkpt lat="42.88965" lon="1.44924">
        <ele>1554.95</ele>
        <time>2024-03-09T10:11:00Z</time>
      </trkpt>
      <trkpt lat="42.88928" lon="1.44838">
        <ele>1575.95</ele>
        <time>2024-03-09T10:13:04Z</time>
      </trkpt>
      <trkpt lat="42.88901" lon="1.44746">
        <ele>1597.86</ele>
        <time>2024-03-09T10:15:15Z</time>
      </trkpt>
      <trkpt lat="42.889" lon="1.44721">
        <ele>1602.93</ele>
        <time>2024-03-09T10:15:45Z</time>
      </trkpt>
      <trkpt lat="42.88868" lon="1.44659">
        <ele>1619.86</ele>
        <time>2024-03-09T10:17:28Z</time>
      </trkpt>
      <trkpt lat="42.88853" lon="1.44644">
        <ele>1627.23</ele>
        <time>2024-03-09T10:18:05Z</time>
      </trkpt>
      <trkpt lat="42.88833" lon="1.44602">
        <ele>1639.86</ele>
        <time>2024-03-09T10:19:17Z</time>
      </trkpt>
      <trkpt lat="42.88798" lon="1.44592">
        <ele>1652.95</ele>
        <time>2024-03-09T10:20:21Z</time>
      </trkpt>
      <trkpt lat="42.88782" lon="1.4458">
        <ele>1656.95</ele>
        <time>2024-03-09T10:20:57Z</time>
      </trkpt>
      <trkpt lat="42.88783" lon="1.44555">
        <ele>1661.96</ele>
        <time>2024-03-09T10:42:10Z</time>
      </trkpt>
      <trkpt lat="42.88808" lon="1.44518">
        <ele>1660.96</ele>
        <time>2024-03-09T10:43:15Z</time>
      </trkpt>
      <trkpt lat="42.88855" lon="1.44563">
        <ele>1638.03</ele>
        <time>2024-03-09T10:43:55Z</time>
      </trkpt>
      <trkpt lat="42.88869" lon="1.44615">
        <ele>1632.31</ele>
        <time>2024-03-09T10:44:06Z</time>
      </trkpt>
      <trkpt lat="42.88874" lon="1.44669">
        <ele>1623.04</ele>
        <time>2024-03-09T10:44:48Z</time>
      </trkpt>
      <trkpt lat="42.88882" lon="1.44693">
        <ele>1618.28</ele>
        <time>2024-03-09T10:44:55Z</time>
      </trkpt>
      <trkpt lat="42.88897" lon="1.44712">
        <ele>1613.17</ele>
        <time>2024-03-09T10:45:01Z</time>
      </trkpt>
      <trkpt lat="42.88903" lon="1.44762">
        <ele>1603.67</ele>
        <time>2024-03-09T10:45:10Z</time>
      </trkpt>
      <trkpt lat="42.88947" lon="1.4485">
        <ele>1580.47</ele>
        <time>2024-03-09T10:45:33Z</time>
      </trkpt>
      <trkpt lat="42.88961" lon="1.44866">
        <ele>1573.43</ele>
        <time>2024-03-09T10:45:38Z</time>
      </trkpt>
      <trkpt lat="42.88973" lon="1.44917">
        <ele>1563.68</ele>
        <time>2024-03-09T10:45:46Z</time>
      </trkpt>
      <trkpt lat="42.88984" lon="1.45005">
        <ele>1551.38</ele>
        <time>2024-03-09T10:45:59Z</time>
      </trkpt>
      <trkpt lat="42.88994" lon="1.45029">
        <ele>1549.26</ele>
        <time>2024-03-09T10:46:05Z</time>
      </trkpt>
      <trkpt lat="42.89018" lon="1.45072">
        <ele>1539.37</ele>
        <time>2024-03-09T10:46:57Z</time>
      </trkpt>
      <trkpt lat="42.89088" lon="1.45158">
        <ele>1505.31</ele>
        <time>2024-03-09T10:47:21Z</time>
      </trkpt>
      <trkpt lat="42.8911" lon="1.45204">
        <ele>1490.8</ele>
        <time>2024-03-09T10:47:34Z</time>
      </trkpt>
      <trkpt lat="42.89104" lon="1.4523">
        <ele>1484.4</ele>
        <time>2024-03-09T10:47:39Z</time>
      </trkpt>
      <trkpt lat="42.89149" lon="1.45279">
        <ele>1457.96</ele>
        <time>2024-03-09T10:48:00Z</time>
      </trkpt>
      <trkpt lat="42.89187" lon="1.45341">
        <ele>1425.69</ele>
        <time>2024-03-09T10:48:46Z</time>
      </trkpt>
      <trkpt lat="42.89203" lon="1.45357">
        <ele>1417.58</ele>
        <time>2024-03-09T10:48:54Z</time>
      </trkpt>
      <trkpt lat="42.89208" lon="1.45383">
        <ele>1413.35</ele>
        <time>2024-03-09T10:48:58Z</time>
      </trkpt>
      <trkpt lat="42.89221" lon="1.45405">
        <ele>1406.47</ele>
        <time>2024-03-09T10:49:03Z</time>
      </trkpt>
      <trkpt lat="42.89253" lon="1.45503">
        <ele>1390.27</ele>
        <time>2024-03-09T10:49:51Z</time>
      </trkpt>
      <trkpt lat="42.89263" lon="1.45561">
        <ele>1382.28</ele>
        <time>2024-03-09T10:50:02Z</time>
      </trkpt>
      <trkpt lat="42.89267" lon="1.45644">
        <ele>1372.95</ele>
        <time>2024-03-09T10:50:16Z</time>
      </trkpt>
      <trkpt lat="42.89312" lon="1.45696">
        <ele>1348.41</ele>
        <time>2024-03-09T10:50:39Z</time>
      </trkpt>
      <trkpt lat="42.89393" lon="1.45765">
        <ele>1307.05</ele>
        <time>2024-03-09T10:51:13Z</time>
      </trkpt>
      <trkpt lat="42.89414" lon="1.45767">
        <ele>1299.21</ele>
        <time>2024-03-09T10:51:21Z</time>
      </trkpt>
      <trkpt lat="42.89462" lon="1.45811">
        <ele>1270.05</ele>
        <time>2024-03-09T10:51:44Z</time>
      </trkpt>
      <trkpt lat="42.89482" lon="1.45807">
        <ele>1260.26</ele>
        <time>2024-03-09T10:51:55Z</time>
      </trkpt>
      <trkpt lat="42.89499" lon="1.45819">
        <ele>1251.94</ele>
        <time>2024-03-09T10:52:01Z</time>
      </trkpt>
      <trkpt lat="42.89513" lon="1.45868">
        <ele>1234.09</ele>
        <time>2024-03-09T10:52:38Z</time>
      </trkpt>
      <trkpt lat="42.89529" lon="1.45885">
        <ele>1219.66</ele>
        <time>2024-03-09T10:52:47Z</time>
      </trkpt>
      <trkpt lat="42.89567" lon="1.45892">
        <ele>1208.33</ele>
        <time>2024-03-09T10:53:04Z</time>
      </trkpt>
      <trkpt lat="42.89568" lon="1.45866">
        <ele>1207.93</ele>
        <time>2024-03-09T11:00:32Z</time>
      </trkpt>
      <trkpt lat="42.89534" lon="1.45882">
        <ele>1217.93</ele>
        <time>2024-03-09T11:01:37Z</time>
      </trkpt>
      <trkpt lat="42.89527" lon="1.45859">
        <ele>1224.91</ele>
        <time>2024-03-09T11:03:47Z</time>
      </trkpt>
      <trkpt lat="42.89509" lon="1.45861">
        <ele>1230.93</ele>
        <time>2024-03-09T11:04:39Z</time>
      </trkpt>
      <trkpt lat="42.89507" lon="1.45811">
        <ele>1245.62</ele>
        <time>2024-03-09T11:06:07Z</time>
      </trkpt>
      <trkpt lat="42.89489" lon="1.45816">
        <ele>1251.84</ele>
        <time>2024-03-09T11:06:40Z</time>
      </trkpt>
      <trkpt lat="42.89487" lon="1.45792">
        <ele>1256.93</ele>
        <time>2024-03-09T11:07:26Z</time>
      </trkpt>
      <trkpt lat="42.89453" lon="1.45808">
        <ele>1267.91</ele>
        <time>2024-03-09T11:08:33Z</time>
      </trkpt>
      <trkpt lat="42.89456" lon="1.45758">
        <ele>1275.93</ele>
        <time>2024-03-09T11:09:52Z</time>
      </trkpt>
      <trkpt lat="42.89437" lon="1.45764">
        <ele>1282.93</ele>
        <time>2024-03-09T11:10:45Z</time>
      </trkpt>
      <trkpt lat="42.89432" lon="1.45741">
        <ele>1290.92</ele>
        <time>2024-03-09T11:11:46Z</time>
      </trkpt>
      <trkpt lat="42.89414" lon="1.4574">
        <ele>1296.63</ele>
        <time>2024-03-09T11:12:35Z</time>
      </trkpt>
      <trkpt lat="42.89353" lon="1.45797">
        <ele>1310.94</ele>
        <time>2024-03-09T11:16:16Z</time>
      </trkpt>
      <trkpt lat="42.89347" lon="1.45773">
        <ele>1317.21</ele>
        <time>2024-03-09T11:17:07Z</time>
      </trkpt>
      <trkpt lat="42.8933" lon="1.45781">
        <ele>1323.02</ele>
        <time>2024-03-09T11:17:44Z</time>
      </trkpt>
      <trkpt lat="42.89331" lon="1.45756">
        <ele>1326.94</ele>
        <time>2024-03-09T11:18:21Z</time>
      </trkpt>
      <trkpt lat="42.89314" lon="1.45764">
        <ele>1331.94</ele>
        <time>2024-03-09T11:19:11Z</time>
      </trkpt>
      <trkpt lat="42.89271" lon="1.4581">
        <ele>1342.89</ele>
        <time>2024-03-09T11:20:29Z</time>
      </trkpt>
      <trkpt lat="42.89278" lon="1.45637">
        <ele>1364.64</ele>
        <time>2024-03-09T11:23:40Z</time>
      </trkpt>
      <trkpt lat="42.89263" lon="1.4554">
        <ele>1377.94</ele>
        <time>2024-03-09T11:25:24Z</time>
      </trkpt>
      <trkpt lat="42.89246" lon="1.45549">
        <ele>1385.85</ele>
        <time>2024-03-09T11:26:15Z</time>
      </trkpt>
      <trkpt lat="42.89194" lon="1.45619">
        <ele>1399.94</ele>
        <time>2024-03-09T11:28:46Z</time>
      </trkpt>
      <trkpt lat="42.89188" lon="1.45596">
        <ele>1402.95</ele>
        <time>2024-03-09T11:29:21Z</time>
      </trkpt>
      <trkpt lat="42.89169" lon="1.45598">
        <ele>1408.86</ele>
        <time>2024-03-09T11:29:49Z</time>
      </trkpt>
      <trkpt lat="42.89155" lon="1.45583">
        <ele>1414.95</ele>
        <time>2024-03-09T11:30:38Z</time>
      </trkpt>
      <trkpt lat="42.89155" lon="1.45558">
        <ele>1417.74</ele>
        <time>2024-03-09T11:31:07Z</time>
      </trkpt>
      <trkpt lat="42.89115" lon="1.45392">
        <ele>1444.92</ele>
        <time>2024-03-09T11:34:14Z</time>
      </trkpt>
      <trkpt lat="42.89096" lon="1.45396">
        <ele>1450.95</ele>
        <time>2024-03-09T11:34:48Z</time>
      </trkpt>
      <trkpt lat="42.89085" lon="1.45377">
        <ele>1457.94</ele>
        <time>2024-03-09T11:36:31Z</time>
      </trkpt>
      <trkpt lat="42.89085" lon="1.45327">
        <ele>1459.95</ele>
        <time>2024-03-09T11:37:17Z</time>
      </trkpt>
      <trkpt lat="42.89077" lon="1.45278">
        <ele>1461.95</ele>
        <time>2024-03-09T11:37:57Z</time>
      </trkpt>
      <trkpt lat="42.89085" lon="1.45255">
        <ele>1465.95</ele>
        <time>2024-03-09T11:38:23Z</time>
      </trkpt>
      <trkpt lat="42.89108" lon="1.45218">
        <ele>1476.86</ele>
        <time>2024-03-09T11:39:20Z</time>
      </trkpt>
      <trkpt lat="42.89117" lon="1.4517">
        <ele>1484.94</ele>
        <time>2024-03-09T11:40:21Z</time>
      </trkpt>
      <trkpt lat="42.89101" lon="1.45158">
        <ele>1492.94</ele>
        <time>2024-03-09T11:40:54Z</time>
      </trkpt>
      <trkpt lat="42.89083" lon="1.45162">
        <ele>1497.92</ele>
        <time>2024-03-09T11:41:22Z</time>
      </trkpt>
      <trkpt lat="42.89086" lon="1.45137">
        <ele>1502.65</ele>
        <time>2024-03-09T11:41:59Z</time>
      </trkpt>
      <trkpt lat="42.89068" lon="1.45132">
        <ele>1508.95</ele>
        <time>2024-03-09T11:42:31Z</time>
      </trkpt>
      <trkpt lat="42.89062" lon="1.45109">
        <ele>1513.95</ele>
        <time>2024-03-09T11:43:17Z</time>
      </trkpt>
      <trkpt lat="42.8905" lon="1.4509">
        <ele>1520.95</ele>
        <time>2024-03-09T11:43:57Z</time>
      </trkpt>
      <trkpt lat="42.89032" lon="1.45092">
        <ele>1524.65</ele>
        <time>2024-03-09T11:44:25Z</time>
      </trkpt>
      <trkpt lat="42.89022" lon="1.45071">
        <ele>1532.63</ele>
        <time>2024-03-09T11:45:07Z</time>
      </trkpt>
      <trkpt lat="42.89006" lon="1.45059">
        <ele>1538.92</ele>
        <time>2024-03-09T11:45:40Z</time>
      </trkpt>
      <trkpt lat="42.88995" lon="1.45039">
        <ele>1541.95</ele>
        <time>2024-03-09T11:46:12Z</time>
      </trkpt>
      <trkpt lat="42.88983" lon="1.45058">
        <ele>1533.29</ele>
        <time>2024-03-09T11:52:29Z</time>
      </trkpt>
      <trkpt lat="42.88981" lon="1.45086">
        <ele>1523.28</ele>
        <time>2024-03-09T11:53:07Z</time>
      </trkpt>
      <trkpt lat="42.88965" lon="1.45138">
        <ele>1503.89</ele>
        <time>2024-03-09T11:53:20Z</time>
      </trkpt>
      <trkpt lat="42.88949" lon="1.45153">
        <ele>1496.77</ele>
        <time>2024-03-09T11:53:25Z</time>
      </trkpt>
      <trkpt lat="42.88917" lon="1.45274">
        <ele>1456.72</ele>
        <time>2024-03-09T11:53:53Z</time>
      </trkpt>
      <trkpt lat="42.88904" lon="1.45298">
        <ele>1449.7</ele>
        <time>2024-03-09T11:53:58Z</time>
      </trkpt>
      <trkpt lat="42.88909" lon="1.45324">
        <ele>1443.81</ele>
        <time>2024-03-09T11:54:01Z</time>
      </trkpt>
      <trkpt lat="42.889" lon="1.45346">
        <ele>1438.46</ele>
        <time>2024-03-09T11:54:05Z</time>
      </trkpt>
      <trkpt lat="42.88918" lon="1.45399">
        <ele>1426.09</ele>
        <time>2024-03-09T11:54:16Z</time>
      </trkpt>
      <trkpt lat="42.88908" lon="1.45424">
        <ele>1422.36</ele>
        <time>2024-03-09T11:54:21Z</time>
      </trkpt>
      <trkpt lat="42.8891" lon="1.4545">
        <ele>1410.35</ele>
        <time>2024-03-09T11:54:33Z</time>
      </trkpt>
      <trkpt lat="42.88898" lon="1.4551">
        <ele>1401.39</ele>
        <time>2024-03-09T11:54:40Z</time>
      </trkpt>
      <trkpt lat="42.88811" lon="1.45621">
        <ele>1386.97</ele>
        <time>2024-03-09T11:56:00Z</time>
      </trkpt>
      <trkpt lat="42.88789" lon="1.45627">
        <ele>1381.42</ele>
        <time>2024-03-09T11:56:08Z</time>
      </trkpt>
      <trkpt lat="42.88758" lon="1.4566">
        <ele>1376.3</ele>
        <time>2024-03-09T11:56:17Z</time>
      </trkpt>
      <trkpt lat="42.88739" lon="1.4567">
        <ele>1372.37</ele>
        <time>2024-03-09T11:56:24Z</time>
      </trkpt>
      <trkpt lat="42.88748" lon="1.45695">
        <ele>1366.11</ele>
        <time>2024-03-09T11:56:29Z</time>
      </trkpt>
      <trkpt lat="42.88734" lon="1.45718">
        <ele>1357.53</ele>
        <time>2024-03-09T11:56:36Z</time>
      </trkpt>
      <trkpt lat="42.88697" lon="1.45748">
        <ele>1348.02</ele>
        <time>2024-03-09T11:56:45Z</time>
      </trkpt>
      <trkpt lat="42.88707" lon="1.45772">
        <ele>1342.03</ele>
        <time>2024-03-09T11:57:57Z</time>
      </trkpt>
      <trkpt lat="42.88725" lon="1.45781">
        <ele>1339.1</ele>
        <time>2024-03-09T11:58:01Z</time>
      </trkpt>
      <trkpt lat="42.88786" lon="1.45848">
        <ele>1329.28</ele>
        <time>2024-03-09T11:58:13Z</time>
      </trkpt>
      <trkpt lat="42.88854" lon="1.45941">
        <ele>1327.68</ele>
        <time>2024-03-09T11:59:49Z</time>
      </trkpt>
      <trkpt lat="42.88857" lon="1.45916">
        <ele>1327.55</ele>
        <time>2024-03-09T12:33:45Z</time>
      </trkpt>
      <trkpt lat="42.8885" lon="1.45866">
        <ele>1332.88</ele>
        <time>2024-03-09T12:34:52Z</time>
      </trkpt>
      <trkpt lat="42.88855" lon="1.45791">
        <ele>1334.97</ele>
        <time>2024-03-09T12:36:00Z</time>
      </trkpt>
      <trkpt lat="42.8887" lon="1.45776">
        <ele>1336.97</ele>
        <time>2024-03-09T12:36:21Z</time>
      </trkpt>
      <trkpt lat="42.88901" lon="1.45715">
        <ele>1347.96</ele>
        <time>2024-03-09T12:38:00Z</time>
      </trkpt>
      <trkpt lat="42.88919" lon="1.45712">
        <ele>1358.95</ele>
        <time>2024-03-09T12:39:37Z</time>
      </trkpt>
      <trkpt lat="42.88933" lon="1.45696">
        <ele>1368.74</ele>
        <time>2024-03-09T12:40:45Z</time>
      </trkpt>
      <trkpt lat="42.88929" lon="1.4567">
        <ele>1375.9</ele>
        <time>2024-03-09T12:41:30Z</time>
      </trkpt>
      <trkpt lat="42.88941" lon="1.45622">
        <ele>1385.96</ele>
        <time>2024-03-09T12:46:19Z</time>
      </trkpt>
      <trkpt lat="42.88936" lon="1.45598">
        <ele>1392.63</ele>
        <time>2024-03-09T12:46:55Z</time>
      </trkpt>
      <trkpt lat="42.88944" lon="1.45576">
        <ele>1396.94</ele>
        <time>2024-03-09T12:47:47Z</time>
      </trkpt>
      <trkpt lat="42.88943" lon="1.45551">
        <ele>1402.97</ele>
        <time>2024-03-09T12:48:25Z</time>
      </trkpt>
      <trkpt lat="42.88933" lon="1.45502">
        <ele>1400.97</ele>
        <time>2024-03-09T12:49:07Z</time>
      </trkpt>
      <trkpt lat="42.88927" lon="1.45478">
        <ele>1402.75</ele>
        <time>2024-03-09T12:49:25Z</time>
      </trkpt>
      <trkpt lat="42.88894" lon="1.45417">
        <ele>1409.96</ele>
        <time>2024-03-09T12:51:05Z</time>
      </trkpt>
      <trkpt lat="42.88861" lon="1.45397">
        <ele>1414.93</ele>
        <time>2024-03-09T12:51:54Z</time>
      </trkpt>
      <trkpt lat="42.88824" lon="1.45394">
        <ele>1416.96</ele>
        <time>2024-03-09T12:52:31Z</time>
      </trkpt>
      <trkpt lat="42.88771" lon="1.45413">
        <ele>1422.24</ele>
        <time>2024-03-09T12:54:14Z</time>
      </trkpt>
      <trkpt lat="42.88757" lon="1.45428">
        <ele>1424.97</ele>
        <time>2024-03-09T12:54:36Z</time>
      </trkpt>
      <trkpt lat="42.88749" lon="1.45406">
        <ele>1428.94</ele>
        <time>2024-03-09T12:55:05Z</time>
      </trkpt>
      <trkpt lat="42.88661" lon="1.4536">
        <ele>1448.97</ele>
        <time>2024-03-09T12:58:05Z</time>
      </trkpt>
      <trkpt lat="42.88603" lon="1.45297">
        <ele>1458.67</ele>
        <time>2024-03-09T12:59:58Z</time>
      </trkpt>
      <trkpt lat="42.88569" lon="1.45282">
        <ele>1469.91</ele>
        <time>2024-03-09T13:00:58Z</time>
      </trkpt>
      <trkpt lat="42.88532" lon="1.45285">
        <ele>1477.68</ele>
        <time>2024-03-09T13:01:59Z</time>
      </trkpt>
      <trkpt lat="42.88544" lon="1.45332">
        <ele>1490.97</ele>
        <time>2024-03-09T13:03:22Z</time>
      </trkpt>
      <trkpt lat="42.88492" lon="1.4531">
        <ele>1504.89</ele>
        <time>2024-03-09T13:04:58Z</time>
      </trkpt>
      <trkpt lat="42.88475" lon="1.45316">
        <ele>1513.98</ele>
        <time>2024-03-09T13:06:19Z</time>
      </trkpt>
      <trkpt lat="42.88459" lon="1.45303">
        <ele>1517.98</ele>
        <time>2024-03-09T13:06:48Z</time>
      </trkpt>
      <trkpt lat="42.88443" lon="1.45313">
        <ele>1527.98</ele>
        <time>2024-03-09T13:07:40Z</time>
      </trkpt>
      <trkpt lat="42.88425" lon="1.45306">
        <ele>1530.98</ele>
        <time>2024-03-09T13:08:12Z</time>
      </trkpt>
      <trkpt lat="42.88408" lon="1.45314">
        <ele>1540.99</ele>
        <time>2024-03-09T13:09:27Z</time>
      </trkpt>
      <trkpt lat="42.88407" lon="1.45339">
        <ele>1549.99</ele>
        <time>2024-03-09T13:10:40Z</time>
      </trkpt>
      <trkpt lat="42.88388" lon="1.45338">
        <ele>1557.95</ele>
        <time>2024-03-09T13:11:47Z</time>
      </trkpt>
      <trkpt lat="42.88354" lon="1.45319">
        <ele>1577.65</ele>
        <time>2024-03-09T13:13:06Z</time>
      </trkpt>
      <trkpt lat="42.88337" lon="1.4533">
        <ele>1580.9</ele>
        <time>2024-03-09T13:13:46Z</time>
      </trkpt>
      <trkpt lat="42.88301" lon="1.45323">
        <ele>1590.99</ele>
        <time>2024-03-09T13:14:51Z</time>
      </trkpt>
      <trkpt lat="42.88284" lon="1.45313">
        <ele>1592.99</ele>
        <time>2024-03-09T13:15:12Z</time>
      </trkpt>
      <trkpt lat="42.8831" lon="1.45273">
        <ele>1586.71</ele>
        <time>2024-03-09T13:21:59Z</time>
      </trkpt>
      <trkpt lat="42.88328" lon="1.4527">
        <ele>1583.02</ele>
        <time>2024-03-09T13:22:06Z</time>
      </trkpt>
      <trkpt lat="42.88363" lon="1.45247">
        <ele>1569.99</ele>
        <time>2024-03-09T13:22:39Z</time>
      </trkpt>
      <trkpt lat="42.88404" lon="1.45242">
        <ele>1540.33</ele>
        <time>2024-03-09T13:22:58Z</time>
      </trkpt>
      <trkpt lat="42.88436" lon="1.45265">
        <ele>1526.32</ele>
        <time>2024-03-09T13:23:38Z</time>
      </trkpt>
      <trkpt lat="42.88453" lon="1.4525">
        <ele>1518.71</ele>
        <time>2024-03-09T13:23:44Z</time>
      </trkpt>
      <trkpt lat="42.88491" lon="1.45256">
        <ele>1497.13</ele>
        <time>2024-03-09T13:23:58Z</time>
      </trkpt>
      <trkpt lat="42.88517" lon="1.4522">
        <ele>1486.38</ele>
        <time>2024-03-09T13:24:08Z</time>
      </trkpt>
      <trkpt lat="42.88539" lon="1.45219">
        <ele>1481.31</ele>
        <time>2024-03-09T13:24:16Z</time>
      </trkpt>
      <trkpt lat="42.88559" lon="1.45208">
        <ele>1471.53</ele>
        <time>2024-03-09T13:24:24Z</time>
      </trkpt>
      <trkpt lat="42.88577" lon="1.45211">
        <ele>1467.42</ele>
        <time>2024-03-09T13:24:28Z</time>
      </trkpt>
      <trkpt lat="42.88592" lon="1.45226">
        <ele>1462.46</ele>
        <time>2024-03-09T13:25:02Z</time>
      </trkpt>
      <trkpt lat="42.88611" lon="1.45221">
        <ele>1457.3</ele>
        <time>2024-03-09T13:25:10Z</time>
      </trkpt>
      <trkpt lat="42.88651" lon="1.45225">
        <ele>1444.41</ele>
        <time>2024-03-09T13:25:21Z</time>
      </trkpt>
      <trkpt lat="42.88746" lon="1.45247">
        <ele>1426.27</ele>
        <time>2024-03-09T13:26:03Z</time>
      </trkpt>
      <trkpt lat="42.88773" lon="1.45284">
        <ele>1424.27</ele>
        <time>2024-03-09T13:26:14Z</time>
      </trkpt>
      <trkpt lat="42.88817" lon="1.45396">
        <ele>1419.25</ele>
        <time>2024-03-09T13:26:59Z</time>
      </trkpt>
      <trkpt lat="42.888" lon="1.45381">
        <ele>1418.96</ele>
        <time>2024-03-09T13:27:35Z</time>
      </trkpt>
      <trkpt lat="42.88822" lon="1.45374">
        <ele>1418.26</ele>
        <time>2024-03-09T13:27:40Z</time>
      </trkpt>
      <trkpt lat="42.88869" lon="1.45411">
        <ele>1413.15</ele>
        <time>2024-03-09T13:27:41Z</time>
      </trkpt>
      <trkpt lat="42.88867" lon="1.45385">
        <ele>1412.37</ele>
        <time>2024-03-09T13:28:04Z</time>
      </trkpt>
      <trkpt lat="42.88824" lon="1.45397">
        <ele>1410.5</ele>
        <time>2024-03-09T13:28:18Z</time>
      </trkpt>
      <trkpt lat="42.88809" lon="1.45381">
        <ele>1418.97</ele>
        <time>2024-03-09T13:30:08Z</time>
      </trkpt>
      <trkpt lat="42.88824" lon="1.45395">
        <ele>1417.96</ele>
        <time>2024-03-09T13:32:53Z</time>
      </trkpt>
      <trkpt lat="42.88861" lon="1.45396">
        <ele>1418.06</ele>
        <time>2024-03-09T13:33:30Z</time>
      </trkpt>
      <trkpt lat="42.88894" lon="1.45417">
        <ele>1416.03</ele>
        <time>2024-03-09T13:34:15Z</time>
      </trkpt>
      <trkpt lat="42.8893" lon="1.45404">
        <ele>1420.96</ele>
        <time>2024-03-09T13:35:05Z</time>
      </trkpt>
      <trkpt lat="42.88944" lon="1.45389">
        <ele>1433.87</ele>
        <time>2024-03-09T13:36:06Z</time>
      </trkpt>
      <trkpt lat="42.88963" lon="1.45388">
        <ele>1433.95</ele>
        <time>2024-03-09T13:36:35Z</time>
      </trkpt>
      <trkpt lat="42.88985" lon="1.4535">
        <ele>1439.95</ele>
        <time>2024-03-09T13:37:19Z</time>
      </trkpt>
      <trkpt lat="42.88993" lon="1.45327">
        <ele>1445.65</ele>
        <time>2024-03-09T13:37:49Z</time>
      </trkpt>
      <trkpt lat="42.8899" lon="1.45303">
        <ele>1449.95</ele>
        <time>2024-03-09T13:38:19Z</time>
      </trkpt>
      <trkpt lat="42.89" lon="1.45282">
        <ele>1454.24</ele>
        <time>2024-03-09T13:38:46Z</time>
      </trkpt>
      <trkpt lat="42.89053" lon="1.45296">
        <ele>1461.94</ele>
        <time>2024-03-09T13:40:05Z</time>
      </trkpt>
      <trkpt lat="42.8907" lon="1.45289">
        <ele>1465.94</ele>
        <time>2024-03-09T13:40:31Z</time>
      </trkpt>
      <trkpt lat="42.89083" lon="1.45307">
        <ele>1464.98</ele>
        <time>2024-03-09T13:45:50Z</time>
      </trkpt>
      <trkpt lat="42.89097" lon="1.4541">
        <ele>1458.28</ele>
        <time>2024-03-09T13:46:37Z</time>
      </trkpt>
      <trkpt lat="42.8911" lon="1.45429">
        <ele>1453.11</ele>
        <time>2024-03-09T13:46:41Z</time>
      </trkpt>
      <trkpt lat="42.89129" lon="1.45483">
        <ele>1446.37</ele>
        <time>2024-03-09T13:46:51Z</time>
      </trkpt>
      <trkpt lat="42.89135" lon="1.45512">
        <ele>1441.68</ele>
        <time>2024-03-09T13:46:55Z</time>
      </trkpt>
      <trkpt lat="42.89136" lon="1.45567">
        <ele>1432.29</ele>
        <time>2024-03-09T13:47:03Z</time>
      </trkpt>
      <trkpt lat="42.89148" lon="1.45588">
        <ele>1429.37</ele>
        <time>2024-03-09T13:47:08Z</time>
      </trkpt>
      <trkpt lat="42.89159" lon="1.45644">
        <ele>1419.08</ele>
        <time>2024-03-09T13:47:18Z</time>
      </trkpt>
      <trkpt lat="42.89174" lon="1.45661">
        <ele>1414.67</ele>
        <time>2024-03-09T13:47:23Z</time>
      </trkpt>
      <trkpt lat="42.89175" lon="1.45686">
        <ele>1406.34</ele>
        <time>2024-03-09T13:47:52Z</time>
      </trkpt>
      <trkpt lat="42.89204" lon="1.45725">
        <ele>1392.65</ele>
        <time>2024-03-09T13:48:07Z</time>
      </trkpt>
      <trkpt lat="42.89205" lon="1.45754">
        <ele>1383.83</ele>
        <time>2024-03-09T13:48:11Z</time>
      </trkpt>
      <trkpt lat="42.89255" lon="1.45792">
        <ele>1363.38</ele>
        <time>2024-03-09T13:48:32Z</time>
      </trkpt>
      <trkpt lat="42.8928" lon="1.45831">
        <ele>1346.36</ele>
        <time>2024-03-09T13:48:53Z</time>
      </trkpt>
      <trkpt lat="42.89313" lon="1.45857">
        <ele>1332.49</ele>
        <time>2024-03-09T13:49:05Z</time>
      </trkpt>
      <trkpt lat="42.89325" lon="1.45878">
        <ele>1322.78</ele>
        <time>2024-03-09T13:49:12Z</time>
      </trkpt>
      <trkpt lat="42.8933" lon="1.4596">
        <ele>1304.49</ele>
        <time>2024-03-09T13:49:23Z</time>
      </trkpt>
      <trkpt lat="42.89325" lon="1.46014">
        <ele>1295.08</ele>
        <time>2024-03-09T13:49:32Z</time>
      </trkpt>
      <trkpt lat="42.89331" lon="1.4604">
        <ele>1287.44</ele>
        <time>2024-03-09T13:49:57Z</time>
      </trkpt>
      <trkpt lat="42.89295" lon="1.4607">
        <ele>1274.4</ele>
        <time>2024-03-09T13:50:08Z</time>
      </trkpt>
      <trkpt lat="42.89281" lon="1.4609">
        <ele>1270.35</ele>
        <time>2024-03-09T13:50:13Z</time>
      </trkpt>
      <trkpt lat="42.89297" lon="1.46102">
        <ele>1267.25</ele>
        <time>2024-03-09T13:50:19Z</time>
      </trkpt>
      <trkpt lat="42.89306" lon="1.46123">
        <ele>1261.29</ele>
        <time>2024-03-09T13:50:26Z</time>
      </trkpt>
      <trkpt lat="42.89309" lon="1.46149">
        <ele>1258.05</ele>
        <time>2024-03-09T13:50:31Z</time>
      </trkpt>
      <trkpt lat="42.89325" lon="1.46138">
        <ele>1253.73</ele>
        <time>2024-03-09T13:50:37Z</time>
      </trkpt>
      <trkpt lat="42.89334" lon="1.4616">
        <ele>1249.02</ele>
        <time>2024-03-09T13:50:41Z</time>
      </trkpt>
      <trkpt lat="42.89349" lon="1.46142">
        <ele>1244.43</ele>
        <time>2024-03-09T13:50:46Z</time>
      </trkpt>
      <trkpt lat="42.89384" lon="1.46122">
        <ele>1234.33</ele>
        <time>2024-03-09T13:50:55Z</time>
      </trkpt>
      <trkpt lat="42.89421" lon="1.46127">
        <ele>1224.27</ele>
        <time>2024-03-09T13:51:35Z</time>
      </trkpt>
      <trkpt lat="42.89424" lon="1.46152">
        <ele>1218.91</ele>
        <time>2024-03-09T13:51:42Z</time>
      </trkpt>
      <trkpt lat="42.89452" lon="1.46184">
        <ele>1191.87</ele>
        <time>2024-03-09T13:53:24Z</time>
      </trkpt>
      <trkpt lat="42.89473" lon="1.46228">
        <ele>1168.11</ele>
        <time>2024-03-09T13:53:41Z</time>
      </trkpt>
      <trkpt lat="42.8949" lon="1.46217">
        <ele>1163.65</ele>
        <time>2024-03-09T13:53:50Z</time>
      </trkpt>
      <trkpt lat="42.89508" lon="1.4622">
        <ele>1163.53</ele>
        <time>2024-03-09T13:54:02Z</time>
      </trkpt>
      <trkpt lat="42.89522" lon="1.46236">
        <ele>1164.63</ele>
        <time>2024-03-09T13:54:13Z</time>
      </trkpt>
      <trkpt lat="42.89559" lon="1.46222">
        <ele>1144.32</ele>
        <time>2024-03-09T13:54:51Z</time>
      </trkpt>
      <trkpt lat="42.8957" lon="1.46244">
        <ele>1144.97</ele>
        <time>2024-03-09T13:55:57Z</time>
      </trkpt>
      <trkpt lat="42.8961" lon="1.46423">
        <ele>1124.94</ele>
        <time>2024-03-09T13:56:33Z</time>
      </trkpt>
      <trkpt lat="42.89602" lon="1.46446">
        <ele>1125.93</ele>
        <time>2024-03-09T13:56:51Z</time>
      </trkpt>
      <trkpt lat="42.89598" lon="1.46573">
        <ele>1129.86</ele>
        <time>2024-03-09T13:58:32Z</time>
      </trkpt>
      <trkpt lat="42.89585" lon="1.46696">
        <ele>1130.93</ele>
        <time>2024-03-09T14:00:35Z</time>
      </trkpt>
    </trkseg>
  </trk>
</gpx>